Time;durP1;ratioP1;P1;durP2;ratioP2;P2;SDS_P1;SDS_P2;PMS_P1;PMS_P2;Temp;Humidity;BMP_temperature;BMP_pressure;BME280_temperature;BME280_humidity;BME280_pressure;Samples;Min_cycle;Max_cycle;Signal;HPM_P1;HPM_P2
2023/08/24 00:01:42;;;;;;;8.57;4.32;;;;;;;19.31;100.00;96137.13;5002281;28;24448;-76
2023/08/24 00:04:09;;;;;;;6.60;4.18;;;;;;;19.22;100.00;96135.38;4986209;28;24439;-76
2023/08/24 00:06:38;;;;;;;6.25;4.05;;;;;;;19.18;100.00;96123.50;4995968;28;24445;-76
2023/08/24 00:09:05;;;;;;;7.03;3.93;;;;;;;18.96;100.00;96129.88;4993529;28;24533;-76
2023/08/24 00:11:32;;;;;;;5.85;3.70;;;;;;;18.84;100.00;96133.63;4992519;28;24437;-76
2023/08/24 00:13:58;;;;;;;10.50;3.90;;;;;;;18.61;100.00;96125.13;5002889;28;24469;-76
2023/08/24 00:16:25;;;;;;;5.82;4.15;;;;;;;18.57;100.00;96124.56;4998950;28;24497;-76
2023/08/24 00:18:51;;;;;;;6.82;3.90;;;;;;;18.52;100.00;96132.03;4992025;28;24452;-76
2023/08/24 00:21:22;;;;;;;7.10;3.97;;;;;;;18.34;100.00;96120.53;5004168;28;24424;-76
2023/08/24 00:23:50;;;;;;;6.50;4.30;;;;;;;18.21;100.00;96122.59;4988009;28;24448;-76
2023/08/24 00:26:17;;;;;;;5.65;4.50;;;;;;;18.00;100.00;96122.69;4988735;28;24449;-78
2023/08/24 00:28:44;;;;;;;8.50;4.30;;;;;;;17.99;100.00;96121.84;4984215;28;24442;-78
2023/08/24 00:31:11;;;;;;;5.83;4.57;;;;;;;17.99;100.00;96114.00;4988549;28;24449;-78
2023/08/24 00:33:38;;;;;;;5.03;4.50;;;;;;;18.06;100.00;96115.13;5002190;28;24429;-78
2023/08/24 00:36:06;;;;;;;6.35;4.63;;;;;;;18.20;100.00;96116.50;5001117;28;24457;-78
2023/08/24 00:38:33;;;;;;;5.38;4.28;;;;;;;18.37;100.00;96112.41;5001720;28;24433;-78
2023/08/24 00:41:00;;;;;;;4.95;4.43;;;;;;;18.48;100.00;96103.59;5004712;28;24848;-78
2023/08/24 00:43:27;;;;;;;7.13;4.28;;;;;;;18.52;100.00;96094.47;4990969;28;24445;-78
2023/08/24 00:45:56;;;;;;;5.38;4.30;;;;;;;18.57;100.00;96087.03;4978664;28;24429;-78
2023/08/24 00:48:25;;;;;;;9.75;4.60;;;;;;;18.64;100.00;96082.88;4996349;28;24516;-78
2023/08/24 00:50:52;;;;;;;8.00;4.70;;;;;;;18.63;100.00;96086.47;4994651;28;24429;-78
2023/08/24 00:53:20;;;;;;;6.32;4.22;;;;;;;18.47;100.00;96086.22;4998162;28;24497;-78
2023/08/24 00:55:47;;;;;;;5.57;4.30;;;;;;;18.48;100.00;96082.63;4988538;28;24453;-78
2023/08/24 00:58:15;;;;;;;4.72;4.00;;;;;;;18.49;100.00;96085.09;5001643;28;24445;-78
2023/08/24 01:00:42;;;;;;;6.82;3.85;;;;;;;18.38;100.00;96079.97;4996736;28;24467;-78
2023/08/24 01:03:08;;;;;;;6.18;3.85;;;;;;;18.16;100.00;96081.03;4993293;28;24491;-78
2023/08/24 01:05:35;;;;;;;4.90;3.88;;;;;;;18.06;100.00;96070.56;4989592;28;25006;-78
2023/08/24 01:08:02;;;;;;;7.80;4.57;;;;;;;18.02;100.00;96082.28;5002395;28;24441;-76
2023/08/24 01:10:37;;;;;;;9.50;4.10;;;;;;;18.00;100.00;96078.94;4998439;28;24444;-76
2023/08/24 01:13:08;;;;;;;5.97;4.53;;;;;;;17.96;100.00;96074.94;4994045;28;24448;-76
2023/08/24 01:15:43;;;;;;;6.97;4.75;;;;;;;17.87;100.00;96079.19;4992923;28;24449;-76
2023/08/24 01:18:14;;;;;;;8.10;4.40;;;;;;;17.80;100.00;96072.00;4984876;28;24420;-76
2023/08/24 01:20:43;;;;;;;5.13;4.35;;;;;;;17.82;100.00;96075.31;5001545;28;24800;-76
2023/08/24 01:23:28;;;;;;;7.55;4.60;;;;;;;17.86;100.00;96074.09;4992348;28;24446;-76
2023/08/24 01:26:04;;;;;;;5.53;4.40;;;;;;;17.86;100.00;96074.09;4996188;28;24530;-76
2023/08/24 01:28:32;;;;;;;6.75;4.70;;;;;;;17.94;100.00;96071.63;4982004;28;24986;-76
2023/08/24 01:30:59;;;;;;;5.32;4.28;;;;;;;18.04;100.00;96067.22;4982836;28;24436;-76
2023/08/24 01:33:26;;;;;;;5.10;4.10;;;;;;;18.22;100.00;96063.97;4993397;28;24448;-76
2023/08/24 01:35:52;;;;;;;5.50;4.25;;;;;;;18.25;100.00;96061.91;4986483;28;24814;-76
2023/08/24 01:38:19;;;;;;;4.28;3.80;;;;;;;18.34;100.00;96065.47;4986192;28;24441;-76
2023/08/24 01:40:54;;;;;;;4.43;4.00;;;;;;;18.36;100.00;96068.81;5001404;28;24421;-76
2023/08/24 01:43:29;;;;;;;7.55;4.25;;;;;;;18.26;100.00;96067.97;5001992;28;24421;-76
2023/08/24 01:45:58;;;;;;;6.03;4.32;;;;;;;18.26;100.00;96070.59;5001913;28;24424;-76
2023/08/24 01:48:25;;;;;;;4.90;4.07;;;;;;;18.28;100.00;96076.50;4996116;28;24442;-76
2023/08/24 01:50:52;;;;;;;6.15;3.70;;;;;;;18.04;100.00;96074.28;5001674;28;24440;-76
2023/08/24 01:53:19;;;;;;;4.53;3.13;;;;;;;17.88;100.00;96077.41;5002555;28;24431;-76
2023/08/24 01:55:46;;;;;;;4.93;3.80;;;;;;;17.73;100.00;96070.84;4988457;28;25023;-76
2023/08/24 01:58:12;;;;;;;10.38;4.43;;;;;;;17.72;100.00;96067.38;4999050;28;24814;-76
2023/08/24 02:00:46;;;;;;;11.57;4.37;;;;;;;17.71;100.00;96067.53;5008898;28;24441;-75
2023/08/24 02:03:18;;;;;;;5.63;4.13;;;;;;;17.59;100.00;96065.00;5017436;28;24447;-76
2023/08/24 02:05:45;;;;;;;9.23;4.97;;;;;;;17.56;100.00;96070.50;5005734;28;24428;-75
2023/08/24 02:10:54;;;;;;;7.60;4.43;;;;;;;17.49;100.00;96066.75;4983830;28;24473;-76
2023/08/24 02:13:20;;;;;;;5.30;4.75;;;;;;;17.49;100.00;96064.13;4994738;28;24448;-75
2023/08/24 02:15:49;;;;;;;5.82;4.45;;;;;;;17.57;100.00;96068.72;5002505;28;24441;-75
2023/08/24 02:18:15;;;;;;;6.33;3.90;;;;;;;17.58;100.00;96059.91;4987277;28;24437;-76
2023/08/24 02:20:42;;;;;;;4.85;4.07;;;;;;;17.44;100.00;96057.66;4999949;28;24445;-76
2023/08/24 02:23:08;;;;;;;6.75;4.30;;;;;;;17.36;100.00;96058.31;4986857;28;24428;-76
2023/08/24 02:25:35;;;;;;;6.28;3.72;;;;;;;17.41;100.00;96069.19;4988392;28;24426;-76
2023/08/24 02:28:01;;;;;;;4.78;4.20;;;;;;;17.44;100.00;96052.41;5001913;28;24451;-76
2023/08/24 02:30:28;;;;;;;6.90;4.22;;;;;;;17.51;100.00;96054.38;4991617;28;24436;-76
2023/08/24 02:32:56;;;;;;;5.60;4.43;;;;;;;17.56;100.00;96051.34;5007444;28;24948;-76
2023/08/24 02:35:22;;;;;;;6.75;4.78;;;;;;;17.37;100.00;96052.91;5006749;28;25027;-76
2023/08/24 02:37:49;;;;;;;6.97;5.28;;;;;;;17.16;100.00;96057.34;4992761;28;24437;-76
2023/08/24 02:40:16;;;;;;;7.50;5.22;;;;;;;17.16;100.00;96057.34;5004492;28;24444;-76
2023/08/24 02:42:42;;;;;;;5.90;4.73;;;;;;;17.21;100.00;96049.13;5006401;28;24424;-76
2023/08/24 02:45:09;;;;;;;5.70;4.80;;;;;;;17.39;100.00;96052.78;4991488;28;24438;-76
2023/08/24 02:47:36;;;;;;;4.22;3.83;;;;;;;17.38;100.00;96056.38;4998094;28;24447;-76
2023/08/24 02:50:07;;;;;;;7.07;4.13;;;;;;;17.42;100.00;96057.75;4994773;28;24444;-76
2023/08/24 02:52:33;;;;;;;6.90;4.40;;;;;;;17.39;100.00;96044.91;5005792;28;24448;-76
2023/08/24 02:55:00;;;;;;;6.03;4.40;;;;;;;17.42;100.00;96034.19;4994365;28;24452;-75
2023/08/24 02:57:26;;;;;;;6.55;4.10;;;;;;;17.48;100.00;96032.84;4998530;28;24437;-75
2023/08/24 02:59:53;;;;;;;5.65;4.35;;;;;;;17.56;100.00;96023.38;4990254;28;24451;-76
2023/08/24 03:02:19;;;;;;;6.35;4.72;;;;;;;17.41;100.00;96025.50;4988040;28;24487;-76
2023/08/24 03:04:46;;;;;;;5.18;4.68;;;;;;;17.34;100.00;96023.56;4993494;28;25042;-75
2023/08/24 03:07:13;;;;;;;6.05;4.50;;;;;;;17.44;100.00;96021.81;5000587;28;24455;-76
2023/08/24 03:09:40;;;;;;;8.15;5.10;;;;;;;17.45;100.00;96018.22;4994390;28;24452;-74
2023/08/24 03:12:07;;;;;;;7.43;5.32;;;;;;;17.54;100.00;96020.06;4993930;28;24428;-74
2023/08/24 03:14:33;;;;;;;5.93;4.72;;;;;;;17.63;100.00;96013.19;4996319;28;24437;-75
2023/08/24 03:17:00;;;;;;;6.97;4.47;;;;;;;17.65;100.00;96012.09;4997330;28;24487;-76
2023/08/24 03:19:27;;;;;;;5.63;4.00;;;;;;;17.54;100.00;96013.97;4989061;28;24821;-75
2023/08/24 03:21:53;;;;;;;5.78;3.80;;;;;;;17.40;100.00;96010.78;4995388;28;24429;-75
2023/08/24 03:24:21;;;;;;;5.40;4.13;;;;;;;17.33;100.00;96007.03;4995460;28;24948;-75
2023/08/24 03:26:48;;;;;;;5.53;4.30;;;;;;;17.33;100.00;96001.78;4994112;28;24417;-76
2023/08/24 03:29:14;;;;;;;5.22;4.22;;;;;;;17.38;100.00;96004.81;4993459;28;24440;-75
2023/08/24 03:31:41;;;;;;;6.18;4.47;;;;;;;17.52;100.00;96003.66;4993392;28;24964;-75
2023/08/24 03:34:07;;;;;;;6.28;4.30;;;;;;;17.58;100.00;96000.50;4995113;28;24440;-75
2023/08/24 03:36:34;;;;;;;6.38;4.53;;;;;;;17.70;100.00;95982.88;4994409;28;24449;-75
2023/08/24 03:39:00;;;;;;;7.32;4.63;;;;;;;17.53;100.00;95992.19;4993120;28;24969;-77
2023/08/24 03:41:28;;;;;;;5.00;4.20;;;;;;;17.36;100.00;95995.47;4992553;28;24439;-78
2023/08/24 03:43:54;;;;;;;10.27;4.63;;;;;;;17.39;100.00;95989.94;4986470;28;24436;-77
2023/08/24 03:46:21;;;;;;;5.68;4.80;;;;;;;17.47;100.00;95982.28;4982123;28;24433;-77
2023/08/24 03:48:47;;;;;;;6.68;4.65;;;;;;;17.53;100.00;95986.13;4983115;28;24437;-77
2023/08/24 03:51:14;;;;;;;6.38;5.05;;;;;;;17.49;100.00;95975.09;4984224;28;24429;-77
2023/08/24 03:53:40;;;;;;;8.70;5.05;;;;;;;17.52;100.00;95981.88;4982177;28;24429;-77
2023/08/24 03:56:07;;;;;;;12.57;4.72;;;;;;;17.49;100.00;95975.09;4981706;28;24464;-77
2023/08/24 03:58:35;;;;;;;7.53;4.82;;;;;;;17.40;100.00;95976.75;4983440;28;24798;-77
2023/08/24 04:01:02;;;;;;;6.35;4.28;;;;;;;17.31;100.00;95966.22;4981941;28;24441;-77
2023/08/24 04:03:28;;;;;;;5.97;4.32;;;;;;;17.48;100.00;95968.22;4982028;28;24484;-77
2023/08/24 04:05:55;;;;;;;6.18;4.95;;;;;;;17.60;100.00;95959.28;4983216;28;24433;-77
2023/08/24 04:08:21;;;;;;;10.73;4.47;;;;;;;17.65;100.00;95964.13;4981517;28;24516;-77
2023/08/24 04:10:48;;;;;;;5.30;4.22;;;;;;;17.65;100.00;95964.97;4981926;28;24436;-77
2023/08/24 04:13:14;;;;;;;5.82;4.65;;;;;;;17.70;100.00;95967.16;4982941;28;24943;-77
2023/08/24 04:15:42;;;;;;;7.05;4.50;;;;;;;17.74;100.00;95958.06;4981453;28;24461;-77
2023/08/24 04:18:08;;;;;;;5.80;4.78;;;;;;;17.68;100.00;95958.59;4989373;28;24436;-77
2023/08/24 04:20:35;;;;;;;9.13;4.70;;;;;;;17.39;100.00;95963.75;4992302;28;24428;-77
2023/08/24 04:23:02;;;;;;;6.00;4.82;;;;;;;17.49;100.00;95966.41;4992011;28;24956;-77
2023/08/24 04:25:30;;;;;;;5.53;4.28;;;;;;;17.53;100.00;95963.38;4991982;28;24769;-77
2023/08/24 04:27:56;;;;;;;6.57;4.25;;;;;;;17.59;100.00;95968.09;4992273;28;24468;-78
2023/08/24 04:30:23;;;;;;;6.45;4.43;;;;;;;17.70;100.00;95953.25;4990344;28;25034;-76
2023/08/24 04:32:51;;;;;;;4.95;4.43;;;;;;;17.72;100.00;95959.97;4991280;28;24440;-78
2023/08/24 04:35:18;;;;;;;5.97;4.25;;;;;;;17.75;100.00;95958.88;4991221;28;24487;-77
2023/08/24 04:37:44;;;;;;;6.70;4.73;;;;;;;17.53;100.00;95952.91;4991482;28;24433;-76
2023/08/24 04:40:12;;;;;;;5.72;4.60;;;;;;;17.24;100.00;95957.25;4991662;28;24417;-76
2023/08/24 04:42:38;;;;;;;7.38;4.63;;;;;;;17.14;100.00;95957.22;4991906;28;24455;-76
2023/08/24 04:45:05;;;;;;;5.15;4.43;;;;;;;17.00;100.00;95955.78;4991327;28;24405;-76
2023/08/24 04:47:32;;;;;;;6.53;4.22;;;;;;;17.15;100.00;95956.25;4991629;28;24413;-76
2023/08/24 04:49:59;;;;;;;5.75;4.00;;;;;;;17.34;100.00;95963.34;4978570;28;24809;-76
2023/08/24 04:52:26;;;;;;;6.47;4.50;;;;;;;17.40;100.00;95968.06;4990117;28;24964;-75
2023/08/24 04:54:53;;;;;;;5.28;4.20;;;;;;;17.46;100.00;95972.75;4981542;28;24428;-76
2023/08/24 04:57:19;;;;;;;8.02;4.78;;;;;;;17.39;100.00;95969.00;4985738;28;24992;-76
2023/08/24 04:59:46;;;;;;;5.05;3.95;;;;;;;17.27;100.00;95959.59;4991802;28;24876;-75
2023/08/24 05:02:13;;;;;;;6.80;5.00;;;;;;;17.24;100.00;95963.31;4991877;28;24432;-76
2023/08/24 05:04:40;;;;;;;5.60;4.63;;;;;;;17.39;100.00;95961.16;4991795;28;24433;-76
2023/08/24 05:07:08;;;;;;;9.50;4.13;;;;;;;17.54;100.00;95954.59;4992066;28;24420;-76
2023/08/24 05:09:34;;;;;;;4.97;4.07;;;;;;;17.65;100.00;95954.47;4992051;28;24441;-76
2023/08/24 05:12:01;;;;;;;5.03;4.30;;;;;;;17.65;100.00;95958.91;4992472;28;24425;-76
2023/08/24 05:14:27;;;;;;;7.85;3.85;;;;;;;17.71;100.00;95957.50;4991990;28;24949;-76
2023/08/24 05:16:54;;;;;;;4.27;3.70;;;;;;;17.84;100.00;95950.25;4992371;28;24442;-76
2023/08/24 05:19:20;;;;;;;7.00;4.40;;;;;;;17.87;100.00;95942.97;4992350;28;24429;-75
2023/08/24 05:21:47;;;;;;;7.50;4.32;;;;;;;17.95;100.00;95934.41;4992557;28;24425;-75
2023/08/24 05:24:15;;;;;;;5.35;4.22;;;;;;;17.95;100.00;95928.31;4993301;28;24421;-76
2023/08/24 05:26:41;;;;;;;8.68;4.60;;;;;;;17.98;100.00;95928.03;4992983;28;24418;-75
2023/08/24 05:29:08;;;;;;;5.30;4.47;;;;;;;17.93;100.00;95931.09;4993327;28;24440;-75
2023/08/24 05:31:34;;;;;;;6.55;4.50;;;;;;;18.00;100.00;95929.56;4993526;28;24429;-75
2023/08/24 05:34:01;;;;;;;7.63;4.50;;;;;;;17.99;100.00;95927.09;4992744;28;24420;-76
2023/08/24 05:36:27;;;;;;;6.90;4.80;;;;;;;18.12;100.00;95925.00;4992553;28;24467;-75
2023/08/24 05:38:56;;;;;;;6.43;5.07;;;;;;;18.23;100.00;95924.03;4992169;28;24435;-76
2023/08/24 05:41:24;;;;;;;7.43;5.07;;;;;;;18.22;100.00;95920.59;4992036;28;24968;-76
2023/08/24 05:43:52;;;;;;;5.68;4.95;;;;;;;18.23;100.00;95929.28;4995982;28;24983;-76
2023/08/24 05:46:19;;;;;;;7.30;4.55;;;;;;;18.14;100.00;95928.34;4996516;28;24516;-76
2023/08/24 05:48:45;;;;;;;6.22;4.32;;;;;;;18.12;100.00;95925.84;4988643;28;24954;-76
2023/08/24 05:51:12;;;;;;;6.55;4.50;;;;;;;18.04;100.00;95927.50;4985160;28;24468;-77
2023/08/24 05:53:40;;;;;;;6.38;4.47;;;;;;;17.93;100.00;95940.75;4990745;28;24639;-77
2023/08/24 05:56:07;;;;;;;7.32;4.40;;;;;;;17.88;100.00;95928.06;4994412;28;24455;-77
2023/08/24 05:58:34;;;;;;;9.73;4.67;;;;;;;17.88;100.00;95930.69;4994660;28;24421;-77
2023/08/24 06:01:01;;;;;;;5.77;4.00;;;;;;;17.99;100.00;95927.94;4994754;28;24468;-77
2023/08/24 06:03:28;;;;;;;4.93;4.40;;;;;;;18.10;100.00;95935.66;4995785;28;24479;-77
2023/08/24 06:05:55;;;;;;;6.05;4.45;;;;;;;18.23;100.00;95934.53;4994955;28;25011;-77
2023/08/24 06:08:22;;;;;;;6.40;4.85;;;;;;;18.35;100.00;95931.63;4996012;28;24413;-77
2023/08/24 06:10:49;;;;;;;7.28;4.47;;;;;;;18.47;100.00;95932.31;4995441;28;24444;-77
2023/08/24 06:13:15;;;;;;;5.00;3.95;;;;;;;18.54;100.00;95932.53;4996508;28;24421;-78
2023/08/24 06:15:44;;;;;;;5.22;4.30;;;;;;;18.63;100.00;95932.53;4995839;28;24793;-77
2023/08/24 06:18:10;;;;;;;6.05;4.25;;;;;;;18.70;100.00;95934.59;4995479;28;24991;-77
2023/08/24 06:20:37;;;;;;;5.00;4.43;;;;;;;18.68;100.00;95941.75;4996019;28;24439;-77
2023/08/24 06:23:04;;;;;;;7.80;4.82;;;;;;;18.55;100.00;95945.53;4995897;28;24413;-78
2023/08/24 06:25:31;;;;;;;8.13;4.43;;;;;;;18.60;100.00;95945.09;4995491;28;24793;-77
2023/08/24 06:27:58;;;;;;;7.70;4.75;;;;;;;18.58;100.00;95954.94;4995484;28;24409;-78
2023/08/24 06:30:25;;;;;;;7.10;5.07;;;;;;;18.57;100.00;95955.88;4995874;28;24425;-78
2023/08/24 06:32:53;;;;;;;6.68;4.55;;;;;;;18.60;100.00;95961.66;4995632;28;24428;-78
2023/08/24 06:35:19;;;;;;;7.85;5.15;;;;;;;18.58;100.00;95970.66;4995428;28;25003;-78
2023/08/24 06:37:46;;;;;;;6.53;4.50;;;;;;;18.56;100.00;95968.16;4995893;28;24447;-78
2023/08/24 06:40:14;;;;;;;7.65;4.45;;;;;;;18.65;100.00;95970.91;4995830;28;24420;-78
2023/08/24 06:42:40;;;;;;;6.18;4.50;;;;;;;18.73;100.00;95986.81;4995199;28;24433;-78
2023/08/24 06:45:09;;;;;;;6.05;4.47;;;;;;;18.72;100.00;95988.59;4996180;28;24423;-78
2023/08/24 06:47:36;;;;;;;25.08;6.93;;;;;;;18.94;100.00;95997.94;4996396;28;24421;-77
2023/08/24 06:50:04;;;;;;;73.60;12.70;;;;;;;19.12;100.00;95990.16;4996038;28;24429;-78
2023/08/24 06:52:31;;;;;;;42.42;9.27;;;;;;;19.56;100.00;95977.25;4996102;28;24416;-77
2023/08/24 06:54:57;;;;;;;8.60;4.97;;;;;;;19.72;100.00;95968.75;4994486;28;24423;-77
2023/08/24 06:57:24;;;;;;;7.78;5.15;;;;;;;19.68;100.00;95962.13;4995288;28;24999;-77
2023/08/24 06:59:51;;;;;;;9.60;6.07;;;;;;;19.48;100.00;95961.41;4994832;28;24435;-77
2023/08/24 07:02:17;;;;;;;12.57;6.32;;;;;;;19.48;100.00;95954.34;4994971;28;24937;-78
2023/08/24 07:04:44;;;;;;;14.10;6.80;;;;;;;19.55;100.00;95952.78;4995492;28;24433;-77
2023/08/24 07:07:12;;;;;;;23.48;7.78;;;;;;;19.77;100.00;95942.88;4995514;28;25051;-77
2023/08/24 07:09:38;;;;;;;30.77;9.02;;;;;;;19.73;100.00;95949.41;4996168;28;24428;-78
2023/08/24 07:12:07;;;;;;;14.27;5.72;;;;;;;20.03;100.00;95938.53;4996498;28;24428;-78
2023/08/24 07:14:33;;;;;;;35.10;9.10;;;;;;;20.32;100.00;95940.09;4996673;28;24416;-78
2023/08/24 07:17:00;;;;;;;9.48;5.40;;;;;;;20.65;100.00;95935.06;4996836;28;24440;-77
2023/08/24 07:19:26;;;;;;;9.65;5.47;;;;;;;20.99;100.00;95941.22;4997502;28;24431;-78
2023/08/24 07:21:53;;;;;;;24.38;6.93;;;;;;;21.45;100.00;95947.03;4997755;28;24516;-78
2023/08/24 07:24:26;;;;;;;14.43;5.07;;;;;;;21.71;100.00;95944.31;4997540;28;24420;-78
2023/08/24 07:26:52;;;;;;;5.55;4.82;;;;;;;22.04;100.00;95943.56;4998052;28;24421;-77
2023/08/24 07:29:19;;;;;;;26.15;7.30;;;;;;;22.30;100.00;95938.19;4997961;28;24425;-78
2023/08/24 07:31:46;;;;;;;9.10;4.60;;;;;;;22.59;100.00;95933.22;4998313;28;24491;-78
2023/08/24 07:34:12;;;;;;;7.45;4.45;;;;;;;22.71;100.00;95942.44;4998235;28;24635;-78
2023/08/24 07:36:39;;;;;;;6.60;4.57;;;;;;;22.65;100.00;95937.00;4998610;28;24447;-77
2023/08/24 07:39:05;;;;;;;9.85;4.60;;;;;;;22.97;100.00;95940.63;4999212;28;24504;-78
2023/08/24 07:41:33;;;;;;;7.15;3.90;;;;;;;22.98;100.00;95929.06;4998983;28;24425;-78
2023/08/24 07:43:59;;;;;;;19.52;5.53;;;;;;;23.38;100.00;95939.47;4998335;28;24413;-78
2023/08/24 07:46:26;;;;;;;48.30;8.93;;;;;;;23.72;100.00;95935.72;4998230;28;24932;-78
2023/08/24 07:48:53;;;;;;;11.75;4.78;;;;;;;23.93;100.00;95937.75;4998617;28;24421;-78
2023/08/24 07:51:19;;;;;;;12.70;5.57;;;;;;;23.89;100.00;95941.75;4998605;28;24436;-79
2023/08/24 07:53:46;;;;;;;9.85;4.40;;;;;;;23.67;100.00;95941.53;4998393;28;24436;-78
2023/08/24 07:56:12;;;;;;;7.35;4.47;;;;;;;23.43;100.00;95937.16;4997884;28;24413;-78
2023/08/24 07:58:40;;;;;;;6.43;3.90;;;;;;;23.56;100.00;95935.78;4998044;28;24994;-78
2023/08/24 08:01:07;;;;;;;9.95;4.40;;;;;;;23.58;100.00;95950.47;4988348;28;24446;-78
2023/08/24 08:03:35;;;;;;;9.88;3.90;;;;;;;23.99;100.00;95960.03;4991326;28;24436;-78
2023/08/24 08:06:02;;;;;;;6.47;3.65;;;;;;;24.09;100.00;95963.28;4996257;28;24433;-78
2023/08/24 08:08:28;;;;;;;5.85;3.58;;;;;;;24.12;100.00;95958.47;4997783;28;24424;-78
2023/08/24 08:10:59;;;;;;;8.07;3.67;;;;;;;24.31;100.00;95957.16;4997689;28;24421;-78
2023/08/24 08:13:26;;;;;;;5.95;3.70;;;;;;;24.91;100.00;95949.41;4996972;28;24413;-78
2023/08/24 08:15:54;;;;;;;9.48;3.83;;;;;;;25.34;100.00;95953.94;4996806;28;24424;-77
2023/08/24 08:18:20;;;;;;;5.88;3.80;;;;;;;25.63;100.00;95946.97;4995455;28;24470;-78
2023/08/24 08:20:51;;;;;;;7.78;4.03;;;;;;;25.91;100.00;95938.31;4994706;28;24498;-78
2023/08/24 08:23:18;;;;;;;9.45;3.33;;;;;;;26.16;100.00;95941.44;4994143;28;24425;-78
2023/08/24 08:25:44;;;;;;;9.35;3.53;;;;;;;26.22;100.00;95946.81;4993159;28;24429;-77
2023/08/24 08:28:11;;;;;;;4.95;3.05;;;;;;;26.14;100.00;95944.28;4991866;28;24415;-77
2023/08/24 08:30:37;;;;;;;5.97;3.58;;;;;;;26.29;100.00;95942.41;4991540;28;24440;-77
2023/08/24 08:33:05;;;;;;;6.95;3.47;;;;;;;26.79;100.00;95942.44;4991314;28;24444;-77
2023/08/24 08:35:32;;;;;;;5.60;3.50;;;;;;;26.87;100.00;95939.63;4991541;28;25042;-78
2023/08/24 08:37:58;;;;;;;7.50;3.80;;;;;;;27.02;100.00;95942.16;4991772;28;24445;-77
2023/08/24 08:40:28;;;;;;;4.93;3.40;;;;;;;26.85;95.54;95946.16;4992373;28;24491;-78
2023/08/24 08:42:56;;;;;;;5.45;3.15;;;;;;;26.82;96.67;95935.91;4988217;28;24425;-77
2023/08/24 08:45:25;;;;;;;10.43;3.40;;;;;;;27.05;98.29;95933.00;4994344;28;24429;-78
2023/08/24 08:47:54;;;;;;;7.63;3.55;;;;;;;27.38;84.54;95936.69;4992101;28;24988;-78
2023/08/24 08:50:22;;;;;;;8.18;3.75;;;;;;;27.09;79.52;95935.06;4992482;28;24436;-78
2023/08/24 08:52:48;;;;;;;4.60;3.28;;;;;;;26.85;80.28;95931.03;4992051;28;24514;-78
2023/08/24 08:55:15;;;;;;;7.63;3.72;;;;;;;27.13;83.10;95939.00;4991731;28;24429;-78
2023/08/24 08:57:42;;;;;;;7.93;3.95;;;;;;;27.39;81.85;95937.50;4991839;28;24556;-78
2023/08/24 09:00:12;;;;;;;26.15;5.45;;;;;;;27.79;82.92;95938.53;4992077;28;24424;-77
2023/08/24 09:02:40;;;;;;;26.65;5.55;;;;;;;27.79;79.16;95927.88;4991066;28;24979;-77
2023/08/24 09:05:07;;;;;;;6.80;3.15;;;;;;;27.66;74.87;95923.31;4990834;28;24765;-77
2023/08/24 09:07:36;;;;;;;61.22;9.15;;;;;;;27.96;75.50;95920.38;4990958;28;24425;-77
2023/08/24 09:10:03;;;;;;;6.43;3.63;;;;;;;28.22;77.50;95911.63;4991100;28;24421;-78
2023/08/24 09:12:32;;;;;;;11.60;4.22;;;;;;;28.29;74.94;95900.94;4991331;28;24417;-78
2023/08/24 09:14:59;;;;;;;7.57;3.55;;;;;;;28.27;76.83;95895.03;4990851;28;24936;-77
2023/08/24 09:17:26;;;;;;;6.47;3.40;;;;;;;28.16;73.89;95891.13;4991597;28;24445;-77
2023/08/24 09:19:58;;;;;;;6.47;3.63;;;;;;;28.56;81.36;95891.97;4991466;28;24456;-78
2023/08/24 09:22:24;;;;;;;10.95;4.72;;;;;;;28.69;72.91;95899.94;4991230;28;24413;-77
2023/08/24 09:24:54;;;;;;;6.75;3.50;;;;;;;28.68;72.64;95887.66;4990800;28;24424;-77
2023/08/24 09:27:22;;;;;;;3.92;3.50;;;;;;;28.86;71.97;95888.88;4989658;28;24476;-78
2023/08/24 09:29:50;;;;;;;6.10;3.22;;;;;;;28.97;74.62;95888.25;4990252;28;24459;-77
2023/08/24 09:32:22;;;;;;;6.78;3.53;;;;;;;29.25;72.59;95879.97;4991044;28;24476;-77
2023/08/24 09:34:48;;;;;;;6.78;3.58;;;;;;;29.23;68.01;95879.38;4990978;28;24877;-77
2023/08/24 09:37:15;;;;;;;7.22;3.92;;;;;;;29.37;71.68;95867.63;4991504;28;24449;-78
2023/08/24 09:39:42;;;;;;;8.57;4.10;;;;;;;29.47;72.24;95864.50;4991645;28;24417;-78
2023/08/24 09:42:09;;;;;;;5.80;3.83;;;;;;;29.51;68.11;95868.38;4993077;28;24412;-78
2023/08/24 09:44:36;;;;;;;5.78;3.75;;;;;;;29.45;66.78;95860.44;4993560;28;24770;-78
2023/08/24 09:47:02;;;;;;;5.70;3.50;;;;;;;29.73;73.25;95852.91;4994260;28;24420;-78
2023/08/24 09:49:29;;;;;;;6.35;4.05;;;;;;;29.77;69.59;95848.78;4993709;28;24971;-78
2023/08/24 09:51:57;;;;;;;5.57;3.42;;;;;;;29.62;67.95;95842.91;4988407;28;24444;-78
2023/08/24 09:54:27;;;;;;;6.68;3.72;;;;;;;29.74;72.28;95837.69;4983928;28;24502;-78
2023/08/24 09:56:55;;;;;;;8.05;4.00;;;;;;;29.83;72.61;95833.75;4987534;28;24963;-78
2023/08/24 09:59:25;;;;;;;7.40;3.90;;;;;;;29.83;65.99;95831.91;4985557;28;24436;-78
2023/08/24 10:01:54;;;;;;;6.50;3.90;;;;;;;29.88;68.20;95820.56;4990259;28;24441;-78
2023/08/24 10:04:24;;;;;;;5.97;3.83;;;;;;;29.81;67.99;95817.13;4994582;28;24433;-78
2023/08/24 10:06:53;;;;;;;7.30;4.28;;;;;;;29.93;76.83;95807.41;4995108;28;24789;-78
2023/08/24 10:09:25;;;;;;;9.50;4.00;;;;;;;30.09;73.62;95809.53;4995400;28;24426;-78
2023/08/24 10:11:57;;;;;;;7.97;4.28;;;;;;;30.18;76.52;95804.75;4995041;28;24507;-78
2023/08/24 10:14:32;;;;;;;8.60;4.60;;;;;;;30.23;65.99;95798.78;4994684;28;24829;-78
2023/08/24 10:16:59;;;;;;;8.27;4.50;;;;;;;30.24;67.08;95803.91;4994171;28;24409;-78
2023/08/24 10:19:26;;;;;;;7.30;4.10;;;;;;;30.36;67.20;95788.78;4986813;28;24468;-78
2023/08/24 10:21:57;;;;;;;8.02;4.13;;;;;;;30.53;68.77;95788.22;4975524;28;24425;-78
2023/08/24 10:24:23;;;;;;;10.63;4.40;;;;;;;30.43;65.39;95788.72;4975152;28;24432;-78
2023/08/24 10:26:51;;;;;;;5.60;4.00;;;;;;;30.48;66.78;95793.41;4974766;28;24432;-79
2023/08/24 10:29:17;;;;;;;12.43;4.15;;;;;;;30.36;64.99;95790.63;4975815;28;24444;-78
2023/08/24 10:31:45;;;;;;;8.60;4.07;;;;;;;30.58;64.65;95786.50;4978970;28;24418;-78
2023/08/24 10:34:12;;;;;;;7.55;4.03;;;;;;;30.75;67.67;95783.31;4979046;28;24422;-78
2023/08/24 10:36:40;;;;;;;7.47;3.90;;;;;;;30.57;65.35;95781.41;4979220;28;24786;-77
2023/08/24 10:39:07;;;;;;;9.68;4.70;;;;;;;30.74;69.12;95781.63;4975147;28;25000;-77
2023/08/24 10:41:47;;;;;;;6.75;4.38;;;;;;;30.07;68.56;95776.06;4974949;28;24424;-77
2023/08/24 10:44:21;;;;;;;12.57;4.50;;;;;;;30.34;66.50;95772.16;4974776;28;24423;-77
2023/08/24 10:47:12;;;;;;;7.72;3.88;;;;;;;30.36;66.67;95771.94;4974721;28;24534;-77
2023/08/24 10:49:39;;;;;;;7.82;3.78;;;;;;;30.68;64.23;95764.63;4983627;28;24413;-78
2023/08/24 10:52:19;;;;;;;6.43;4.00;;;;;;;30.62;70.29;95752.94;4994116;28;24429;-77
2023/08/24 10:54:48;;;;;;;6.47;4.30;;;;;;;30.89;71.84;95752.72;4993505;28;24514;-77
2023/08/24 10:57:19;;;;;;;11.13;4.57;;;;;;;31.00;64.02;95753.78;4993823;28;24422;-77
2023/08/24 10:59:46;;;;;;;8.85;4.50;;;;;;;30.77;65.92;95739.25;4993769;28;24944;-77
2023/08/24 11:02:20;;;;;;;6.30;3.90;;;;;;;30.85;69.48;95741.66;4993912;28;24412;-77
2023/08/24 11:05:15;;;;;;;10.07;4.30;;;;;;;31.07;72.82;95736.66;4993661;28;24472;-77
2023/08/24 11:07:52;;;;;;;7.20;3.90;;;;;;;30.98;65.42;95737.97;4993596;28;24464;-77
2023/08/24 11:10:20;;;;;;;9.00;4.22;;;;;;;31.03;63.06;95739.97;4993554;28;24435;-77
2023/08/24 11:13:08;;;;;;;4.68;3.80;;;;;;;30.88;64.49;95744.91;4984753;28;24440;-78
2023/08/24 11:15:38;;;;;;;11.43;4.43;;;;;;;30.89;66.74;95731.31;4971896;28;24437;-77
2023/08/24 11:18:26;;;;;;;14.90;4.27;;;;;;;30.94;65.24;95728.78;4983380;28;24453;-78
2023/08/24 11:20:54;;;;;;;6.95;3.78;;;;;;;31.07;64.31;95731.28;4981754;28;24448;-77
2023/08/24 11:23:22;;;;;;;6.47;4.30;;;;;;;31.36;66.46;95728.84;4982991;28;24440;-77
2023/08/24 11:25:54;;;;;;;7.72;3.90;;;;;;;31.19;66.10;95719.81;4990643;28;24437;-77
2023/08/24 11:28:21;;;;;;;7.87;3.83;;;;;;;31.06;64.17;95721.63;4987508;28;24480;-77
2023/08/24 11:30:50;;;;;;;6.28;4.00;;;;;;;30.71;64.04;95712.59;4993014;28;24413;-77
2023/08/24 11:33:27;;;;;;;9.48;3.95;;;;;;;30.74;63.98;95717.47;4992670;28;24556;-77